Hamnavoe — VSTY7 — position and weather

sailwx.info

Track history (hours):
 
Tides and Currents Weather Stations Pressure Air Temp Water Temp Dewpoint Dewpoint Depression Visibility Wind Speed Wind Dir Waves Ship Positions

Hamnavoe

Operator: NorthLink Orkey & Shetland Ferries Ltd

Last reported at 2015-Sep-01 03:28 UTC. Time now 2015-Sep-01 03:54 UTC.
Position N 58°58' W 003°18'.

Length 112 m; draft 4.2 m.

Type: Ship. MMSI: 235449000.

Date/timePositionNaut miles runAvg speedWind from/ knotsBaromVisibWave heightAir tempDewpointWater temp
2015-Sep-01 03:28N 58°58' W 003°18'0 0.0
2015-Sep-01 02:28N 58°58' W 003°18'0 0.0
2015-Sep-01 01:31N 58°58' W 003°18'0 0.0
2015-Sep-01 00:31N 58°58' W 003°18'0 0.0
2015-Aug-31 23:31N 58°58' W 003°18'0 0.0
2015-Aug-31 22:31N 58°58' W 003°18'0 0.0
2015-Aug-31 21:31N 58°58' W 003°18'0 0.0
2015-Aug-31 20:31N 58°58' W 003°18'0 0.0
2015-Aug-31 19:33N 58°58' W 003°18'1313.4
2015-Aug-31 18:33N 58°46' W 003°30'9 9.3
2015-Aug-31 17:33N 58°37' W 003°32'10 9.6
2015-Aug-31 16:33N 58°46' W 003°30'1313.2
2015-Aug-31 15:33N 58°58' W 003°18'0 0.0
2015-Aug-31 14:33N 58°58' W 003°18'1 1.0
2015-Aug-31 13:34N 58°57' W 003°18'1514.6
2015-Aug-31 12:33N 58°44' W 003°30'7 7.1
2015-Aug-31 11:33N 58°37' W 003°32'1515.2
2015-Aug-31 10:33N 58°52' W 003°28'8 8.2
2015-Aug-31 09:33N 58°58' W 003°18'8 8.2
2015-Aug-31 08:33N 58°52' W 003°28'1515.1
2015-Aug-31 07:34N 58°37' W 003°32'7 7.2
2015-Aug-31 06:33N 58°44' W 003°30'1515.2
2015-Aug-31 05:33N 58°58' W 003°18'0 0.2
2015-Aug-31 04:31N 58°58' W 003°18'0 0.0
2015-Aug-31 03:31N 58°58' W 003°18'0 0.0
2015-Aug-31 02:31N 58°58' W 003°18'0 0.0
2015-Aug-31 01:31N 58°58' W 003°18'0 0.0
2015-Aug-31 00:31N 58°58' W 003°18'0 0.0
2015-Aug-30 23:31N 58°58' W 003°18'0 0.0
2015-Aug-30 22:31N 58°58' W 003°18'0 0.0
2015-Aug-30 21:31N 58°58' W 003°18'0 0.0
2015-Aug-30 20:31N 58°58' W 003°18'0 0.0
2015-Aug-30 19:29N 58°58' W 003°18'1212.6
2015-Aug-30 18:33N 58°47' W 003°29'1111.0
2015-Aug-30 17:33N 58°37' W 003°32'1110.9
2015-Aug-30 16:33N 58°47' W 003°29'1211.9
2015-Aug-30 15:33N 58°58' W 003°18'0 0.0
2015-Aug-30 14:32N 58°58' W 003°18'0 0.0
2015-Aug-30 13:32N 58°58' W 003°18'0 0.0
2015-Aug-30 12:33N 58°58' W 003°18'1212.4
2015-Aug-30 11:34N 58°47' W 003°29'1110.6
2015-Aug-30 10:33N 58°37' W 003°32'0 0.0
2015-Aug-30 09:33N 58°37' W 003°32'1716.7
2015-Aug-30 08:33N 58°53' W 003°27'7 6.8
2015-Aug-30 07:33N 58°58' W 003°18'0 0.0
2015-Aug-30 06:33N 58°58' W 003°18'0 0.0
2015-Aug-30 05:33N 58°58' W 003°18'0 0.0
2015-Aug-30 04:33N 58°58' W 003°18'0 0.0
2015-Aug-30 03:33N 58°58' W 003°18'0 0.0
2015-Aug-30 02:33N 58°58' W 003°18'0 0.0
2015-Aug-30 01:33N 58°58' W 003°18'0 0.0
2015-Aug-30 00:33N 58°58' W 003°18'0 0.0
2015-Aug-29 23:33N 58°58' W 003°18'0 0.0
2015-Aug-29 22:33N 58°58' W 003°18'0 0.0
2015-Aug-29 21:33N 58°58' W 003°18'0 0.0
2015-Aug-29 20:33N 58°58' W 003°18'0 0.0
2015-Aug-29 19:33N 58°58' W 003°18'1110.6
2015-Aug-29 18:33N 58°49' W 003°29'1212.3
2015-Aug-29 17:33N 58°37' W 003°32'1110.9
2015-Aug-29 16:34N 58°47' W 003°29'1212.0
2015-Aug-29 15:33N 58°58' W 003°18'0 0.0
2015-Aug-29 14:33N 58°58' W 003°18'1 1.0
2015-Aug-29 13:33N 58°57' W 003°17'1615.7
2015-Aug-29 12:34N 58°42' W 003°28'6 6.0
2015-Aug-29 11:33N 58°37' W 003°32'1615.6
2015-Aug-29 10:33N 58°52' W 003°28'8 7.8
2015-Aug-29 09:33N 58°58' W 003°18'8 8.1
2015-Aug-29 08:33N 58°51' W 003°27'1515.0
2015-Aug-29 07:34N 58°37' W 003°32'7 6.7
2015-Aug-29 06:34N 58°43' W 003°30'1515.4
2015-Aug-29 05:33N 58°57' W 003°17'1 0.6
2015-Aug-29 04:32N 58°58' W 003°18'0 0.0
2015-Aug-29 03:32N 58°58' W 003°18'0 0.0
2015-Aug-29 02:32N 58°58' W 003°18'0 0.0
2015-Aug-29 01:32N 58°58' W 003°18'0 0.0
2015-Aug-29 00:32N 58°58' W 003°18'0 0.0
2015-Aug-28 23:32N 58°58' W 003°18'0 0.0
2015-Aug-28 22:32N 58°58' W 003°18'0 0.0
2015-Aug-28 21:32N 58°58' W 003°18'0 0.0
2015-Aug-28 20:32N 58°58' W 003°18'0 0.0
2015-Aug-28 19:33N 58°58' W 003°18'1211.8
2015-Aug-28 18:33N 58°48' W 003°29'1111.1
2015-Aug-28 17:33N 58°37' W 003°32'1110.5
2015-Aug-28 16:34N 58°47' W 003°29'1212.3
2015-Aug-28 15:34N 58°58' W 003°18'1 0.5
2015-Aug-28 13:33N 58°57' W 003°18'1616.2
2015-Aug-28 12:33N 58°42' W 003°30'5 5.4
2015-Aug-28 11:33N 58°37' W 003°32'1414.5
2015-Aug-28 10:33N 58°51' W 003°28'9 8.7
2015-Aug-28 09:33N 58°58' W 003°18'7 7.4
2015-Aug-28 08:34N 58°53' W 003°28'1616.1
2015-Aug-28 07:33N 58°37' W 003°32'7 6.6
2015-Aug-28 06:34N 58°43' W 003°31'1515.5
2015-Aug-28 05:33N 58°57' W 003°17'1 0.8
2015-Aug-28 04:33N 58°58' W 003°18'0 0.0
2015-Aug-28 03:33N 58°58' W 003°18'0 0.0
2015-Aug-28 02:33N 58°58' W 003°18'0 0.0
2015-Aug-28 01:27N 58°58' W 003°18'0 0.0
2015-Aug-28 00:33N 58°58' W 003°18'0 0.0
2015-Aug-27 23:21N 58°58' W 003°18'0 0.0
2015-Aug-27 22:33N 58°58' W 003°18'0 0.0
2015-Aug-27 21:33N 58°58' W 003°18'0 0.0
2015-Aug-27 20:33N 58°58' W 003°18'0 0.0
2015-Aug-27 19:33N 58°58' W 003°18'1212.1
2015-Aug-27 18:33N 58°47' W 003°29'1110.7
2015-Aug-27 17:33N 58°37' W 003°32'1111.1
2015-Aug-27 16:33N 58°48' W 003°29'1211.7
2015-Aug-27 15:33N 58°58' W 003°18'0 0.0
2015-Aug-27 14:31N 58°58' W 003°18'0 0.0
2015-Aug-27 13:22N 58°58' W 003°18'0 0.0
2015-Aug-27 12:31N 58°58' W 003°18'0 0.0
2015-Aug-27 11:31N 58°58' W 003°18'0 0.0
2015-Aug-27 10:28N 58°58' W 003°18'0 0.0
2015-Aug-27 09:28N 58°58' W 003°18'8 8.9
2015-Aug-27 08:34N 58°52' W 003°28'1515.2
2015-Aug-27 07:34N 58°37' W 003°32'7 6.6
2015-Aug-27 06:33N 58°43' W 003°30'1615.6
2015-Aug-27 05:33N 58°57' W 003°18'0 0.3
2015-Aug-27 04:18N 58°58' W 003°18'0 0.0
2015-Aug-27 03:30N 58°58' W 003°18'0 0.0
2015-Aug-27 02:30N 58°58' W 003°18'0 0.0
2015-Aug-27 01:30N 58°58' W 003°18'0 0.0
2015-Aug-27 00:30N 58°58' W 003°18'0 0.0
2015-Aug-26 23:30N 58°58' W 003°18'0 0.0
2015-Aug-26 22:30N 58°58' W 003°18'0 0.0
2015-Aug-26 21:18N 58°58' W 003°18'0 0.0
2015-Aug-26 20:30N 58°58' W 003°18'0 0.0
2015-Aug-26 19:31N 58°58' W 003°18'1313.1
2015-Aug-26 18:33N 58°47' W 003°29'1010.2
2015-Aug-26 17:33N 58°37' W 003°32'1111.4
2015-Aug-26 16:33N 58°48' W 003°29'1111.5
2015-Aug-26 15:33N 58°58' W 003°18'0 0.0
2015-Aug-26 14:31N 58°58' W 003°18'0 0.0
2015-Aug-26 13:31N 58°58' W 003°18'0 0.0
2015-Aug-26 12:31N 58°58' W 003°18'0 0.0
2015-Aug-26 11:25N 58°58' W 003°18'0 0.0
2015-Aug-26 10:31N 58°58' W 003°18'0 0.0
2015-Aug-26 09:31N 58°58' W 003°18'7 7.7
2015-Aug-26 08:33N 58°52' W 003°28'1615.8
2015-Aug-26 07:33N 58°37' W 003°32'6 5.8
2015-Aug-26 06:33N 58°42' W 003°30'1616.0
2015-Aug-26 05:33N 58°57' W 003°17'1 0.9
2015-Aug-26 04:30N 58°58' W 003°18'0 0.0
2015-Aug-26 03:30N 58°58' W 003°18'0 0.0
2015-Aug-26 02:30N 58°58' W 003°18'0 0.0
2015-Aug-26 01:33N 58°58' W 003°18'0 0.0
2015-Aug-26 00:30N 58°58' W 003°18'0 0.0
2015-Aug-25 23:33N 58°58' W 003°18'0 0.0
2015-Aug-25 22:33N 58°58' W 003°18'0 0.0
2015-Aug-25 21:30N 58°58' W 003°18'0 0.0
2015-Aug-25 20:30N 58°58' W 003°18'0 0.0
2015-Aug-25 19:33N 58°58' W 003°18'1212.3
2015-Aug-25 18:33N 58°47' W 003°30'1110.6
2015-Aug-25 17:33N 58°37' W 003°32'1111.3
2015-Aug-25 16:34N 58°48' W 003°29'1211.5
2015-Aug-25 15:33N 58°58' W 003°18'0 0.0
2015-Aug-25 14:33N 58°58' W 003°18'0 0.1
2015-Aug-25 13:33N 58°58' W 003°18'1515.2
2015-Aug-25 12:33N 58°44' W 003°30'7 7.3
2015-Aug-25 11:33N 58°37' W 003°32'1616.2
2015-Aug-25 10:33N 58°53' W 003°29'8 7.8
2015-Aug-25 09:33N 58°58' W 003°18'7 7.5
2015-Aug-25 08:34N 58°52' W 003°28'1615.9
2015-Aug-25 07:34N 58°37' W 003°32'5 5.1
2015-Aug-25 06:33N 58°42' W 003°30'1716.5
2015-Aug-25 05:34N 58°57' W 003°18'1 0.9
2015-Aug-25 04:30N 58°58' W 003°18'0 0.0
2015-Aug-25 03:30N 58°58' W 003°18'0 0.0
2015-Aug-25 02:30N 58°58' W 003°18'0 0.0
2015-Aug-25 01:33N 58°58' W 003°18'0 0.0
2015-Aug-25 00:30N 58°58' W 003°18'0 0.0
2015-Aug-24 23:30N 58°58' W 003°18'0 0.0
2015-Aug-24 22:33N 58°58' W 003°18'0 0.0
2015-Aug-24 21:33N 58°58' W 003°18'0 0.0
2015-Aug-24 20:30N 58°58' W 003°18'0 0.0
2015-Aug-24 19:33N 58°58' W 003°18'1111.1
2015-Aug-24 18:33N 58°48' W 003°28'1211.6
2015-Aug-24 17:33N 58°37' W 003°32'1010.5
2015-Aug-24 16:33N 58°47' W 003°29'1212.3
2015-Aug-24 15:33N 58°58' W 003°18'0 0.0
2015-Aug-24 14:33N 58°58' W 003°18'0 0.0
2015-Aug-24 13:33N 58°58' W 003°18'1515.0
2015-Aug-24 12:33N 58°44' W 003°30'8 7.5
2015-Aug-24 11:33N 58°37' W 003°32'1515.1
2015-Aug-24 10:33N 58°51' W 003°28'8 8.3
2015-Aug-24 09:33N 58°58' W 003°18'8 8.2
2015-Aug-24 08:33N 58°52' W 003°29'1515.3
2015-Aug-24 07:33N 58°37' W 003°32'6 5.6
2015-Aug-24 06:33N 58°42' W 003°30'1616.5
2015-Aug-24 05:33N 58°57' W 003°17'1 0.7
2015-Aug-24 04:28N 58°58' W 003°18'0 0.0
2015-Aug-24 03:28N 58°58' W 003°18'0 0.0
2015-Aug-24 02:28N 58°58' W 003°18'0 0.0
2015-Aug-24 01:28N 58°58' W 003°18'0 0.0
2015-Aug-24 00:28N 58°58' W 003°18'0 0.0
2015-Aug-23 23:28N 58°58' W 003°18'0 0.0
2015-Aug-23 22:28N 58°58' W 003°18'0 0.0
2015-Aug-23 21:22N 58°58' W 003°18'0 0.0
2015-Aug-23 20:28N 58°58' W 003°18'0 0.0
2015-Aug-23 19:33N 58°58' W 003°18'1110.7
2015-Aug-23 18:33N 58°49' W 003°28'1212.1
2015-Aug-23 17:33N 58°37' W 003°32'9 8.5
2015-Aug-23 16:33N 58°45' W 003°30'1412.5
2015-Aug-23 15:26N 58°58' W 003°18'0 0.0
2015-Aug-23 14:32N 58°58' W 003°18'0 0.0
2015-Aug-23 13:31N 58°58' W 003°18'0 0.0
2015-Aug-23 12:33N 58°58' W 003°18'1111.2
2015-Aug-23 11:33N 58°48' W 003°29'1211.5
2015-Aug-23 10:32N 58°37' W 003°32'0 0.1
2015-Aug-23 09:27N 58°37' W 003°32'1617.6
2015-Aug-23 08:33N 58°52' W 003°28'8 5.9
2015-Aug-23 07:14N 58°58' W 003°18'0 0.0
2015-Aug-23 06:20N 58°58' W 003°18'0 0.0
2015-Aug-23 05:20N 58°58' W 003°18'0 0.0
2015-Aug-23 04:26N 58°58' W 003°18'0 0.0
2015-Aug-23 03:32N 58°58' W 003°18'0 0.0
2015-Aug-23 02:32N 58°58' W 003°18'0 0.0
2015-Aug-23 01:32N 58°58' W 003°18'0 0.0
2015-Aug-23 00:32N 58°58' W 003°18'0 0.0
2015-Aug-22 23:32N 58°58' W 003°18'0 0.0
2015-Aug-22 22:26N 58°58' W 003°18'0 0.0
2015-Aug-22 21:32N 58°58' W 003°18'0 0.0
2015-Aug-22 20:32N 58°58' W 003°18'0 0.0
2015-Aug-22 19:32N 58°58' W 003°18'1010.7
2015-Aug-22 18:33N 58°49' W 003°28'3 1.4
2015-Aug-22 16:33N 58°46' W 003°29'1313.0
2015-Aug-22 15:33N 58°58' W 003°18'0 0.0
2015-Aug-22 14:33N 58°58' W 003°18'2 1.7
2015-Aug-22 13:33N 58°57' W 003°20'2110.3
2015-Aug-22 11:31N 58°37' W 003°32'1717.8
2015-Aug-22 10:33N 58°53' W 003°29'7 7.2
2015-Aug-22 09:33N 58°58' W 003°18'7 6.9
2015-Aug-22 08:33N 58°53' W 003°27'11 5.6
2015-Aug-22 06:33N 58°42' W 003°31'1616.2
2015-Aug-22 05:33N 58°57' W 003°18'1 1.0
2015-Aug-22 04:33N 58°58' W 003°18'0 0.0
2015-Aug-22 03:33N 58°58' W 003°18'  
Track history (hours):
 
Tides and Currents Weather Stations Pressure Air Temp Water Temp Dewpoint Dewpoint Depression Visibility Wind Speed Wind Dir Waves Ship Positions

Hamnavoe

Operator: NorthLink Orkey & Shetland Ferries Ltd

Last reported at 2015-Sep-01 03:28 UTC. Time now 2015-Sep-01 03:54 UTC.
Position N 58°58' W 003°18'.

Length 112 m; draft 4.2 m.

Type: Ship. MMSI: 235449000.

Date/timePositionNaut miles runAvg speedWind from/ knotsBaromVisibWave heightAir tempDewpointWater temp
2015-Sep-01 03:28N 58°58' W 003°18'0 0.0
2015-Sep-01 02:28N 58°58' W 003°18'0 0.0
2015-Sep-01 01:31N 58°58' W 003°18'0 0.0
2015-Sep-01 00:31N 58°58' W 003°18'0 0.0
2015-Aug-31 23:31N 58°58' W 003°18'0 0.0
2015-Aug-31 22:31N 58°58' W 003°18'0 0.0
2015-Aug-31 21:31N 58°58' W 003°18'0 0.0
2015-Aug-31 20:31N 58°58' W 003°18'0 0.0
2015-Aug-31 19:33N 58°58' W 003°18'1313.4
2015-Aug-31 18:33N 58°46' W 003°30'9 9.3
2015-Aug-31 17:33N 58°37' W 003°32'10 9.6
2015-Aug-31 16:33N 58°46' W 003°30'1313.2
2015-Aug-31 15:33N 58°58' W 003°18'0 0.0
2015-Aug-31 14:33N 58°58' W 003°18'1 1.0
2015-Aug-31 13:34N 58°57' W 003°18'1514.6
2015-Aug-31 12:33N 58°44' W 003°30'7 7.1
2015-Aug-31 11:33N 58°37' W 003°32'1515.2
2015-Aug-31 10:33N 58°52' W 003°28'8 8.2
2015-Aug-31 09:33N 58°58' W 003°18'8 8.2
2015-Aug-31 08:33N 58°52' W 003°28'1515.1
2015-Aug-31 07:34N 58°37' W 003°32'7 7.2
2015-Aug-31 06:33N 58°44' W 003°30'1515.2
2015-Aug-31 05:33N 58°58' W 003°18'0 0.2
2015-Aug-31 04:31N 58°58' W 003°18'0 0.0
2015-Aug-31 03:31N 58°58' W 003°18'0 0.0
2015-Aug-31 02:31N 58°58' W 003°18'0 0.0
2015-Aug-31 01:31N 58°58' W 003°18'0 0.0
2015-Aug-31 00:31N 58°58' W 003°18'0 0.0
2015-Aug-30 23:31N 58°58' W 003°18'0 0.0
2015-Aug-30 22:31N 58°58' W 003°18'0 0.0
2015-Aug-30 21:31N 58°58' W 003°18'0 0.0
2015-Aug-30 20:31N 58°58' W 003°18'0 0.0
2015-Aug-30 19:29N 58°58' W 003°18'1212.6
2015-Aug-30 18:33N 58°47' W 003°29'1111.0
2015-Aug-30 17:33N 58°37' W 003°32'1110.9
2015-Aug-30 16:33N 58°47' W 003°29'1211.9
2015-Aug-30 15:33N 58°58' W 003°18'0 0.0
2015-Aug-30 14:32N 58°58' W 003°18'0 0.0
2015-Aug-30 13:32N 58°58' W 003°18'0 0.0
2015-Aug-30 12:33N 58°58' W 003°18'1212.4
2015-Aug-30 11:34N 58°47' W 003°29'1110.6
2015-Aug-30 10:33N 58°37' W 003°32'0 0.0
2015-Aug-30 09:33N 58°37' W 003°32'1716.7
2015-Aug-30 08:33N 58°53' W 003°27'7 6.8
2015-Aug-30 07:33N 58°58' W 003°18'0 0.0
2015-Aug-30 06:33N 58°58' W 003°18'0 0.0
2015-Aug-30 05:33N 58°58' W 003°18'0 0.0
2015-Aug-30 04:33N 58°58' W 003°18'0 0.0
2015-Aug-30 03:33N 58°58' W 003°18'0 0.0
2015-Aug-30 02:33N 58°58' W 003°18'0 0.0
2015-Aug-30 01:33N 58°58' W 003°18'0 0.0
2015-Aug-30 00:33N 58°58' W 003°18'0 0.0
2015-Aug-29 23:33N 58°58' W 003°18'0 0.0
2015-Aug-29 22:33N 58°58' W 003°18'0 0.0
2015-Aug-29 21:33N 58°58' W 003°18'0 0.0
2015-Aug-29 20:33N 58°58' W 003°18'0 0.0
2015-Aug-29 19:33N 58°58' W 003°18'1110.6
2015-Aug-29 18:33N 58°49' W 003°29'1212.3
2015-Aug-29 17:33N 58°37' W 003°32'1110.9
2015-Aug-29 16:34N 58°47' W 003°29'1212.0
2015-Aug-29 15:33N 58°58' W 003°18'0 0.0
2015-Aug-29 14:33N 58°58' W 003°18'1 1.0
2015-Aug-29 13:33N 58°57' W 003°17'1615.7
2015-Aug-29 12:34N 58°42' W 003°28'6 6.0
2015-Aug-29 11:33N 58°37' W 003°32'1615.6
2015-Aug-29 10:33N 58°52' W 003°28'8 7.8
2015-Aug-29 09:33N 58°58' W 003°18'8 8.1
2015-Aug-29 08:33N 58°51' W 003°27'1515.0
2015-Aug-29 07:34N 58°37' W 003°32'7 6.7
2015-Aug-29 06:34N 58°43' W 003°30'1515.4
2015-Aug-29 05:33N 58°57' W 003°17'1 0.6
2015-Aug-29 04:32N 58°58' W 003°18'0 0.0
2015-Aug-29 03:32N 58°58' W 003°18'0 0.0
2015-Aug-29 02:32N 58°58' W 003°18'0 0.0
2015-Aug-29 01:32N 58°58' W 003°18'0 0.0
2015-Aug-29 00:32N 58°58' W 003°18'0 0.0
2015-Aug-28 23:32N 58°58' W 003°18'0 0.0
2015-Aug-28 22:32N 58°58' W 003°18'0 0.0
2015-Aug-28 21:32N 58°58' W 003°18'0 0.0
2015-Aug-28 20:32N 58°58' W 003°18'0 0.0
2015-Aug-28 19:33N 58°58' W 003°18'1211.8
2015-Aug-28 18:33N 58°48' W 003°29'1111.1
2015-Aug-28 17:33N 58°37' W 003°32'1110.5
2015-Aug-28 16:34N 58°47' W 003°29'1212.3
2015-Aug-28 15:34N 58°58' W 003°18'1 0.5
2015-Aug-28 13:33N 58°57' W 003°18'1616.2
2015-Aug-28 12:33N 58°42' W 003°30'5 5.4
2015-Aug-28 11:33N 58°37' W 003°32'1414.5
2015-Aug-28 10:33N 58°51' W 003°28'9 8.7
2015-Aug-28 09:33N 58°58' W 003°18'7 7.4
2015-Aug-28 08:34N 58°53' W 003°28'1616.1
2015-Aug-28 07:33N 58°37' W 003°32'7 6.6
2015-Aug-28 06:34N 58°43' W 003°31'1515.5
2015-Aug-28 05:33N 58°57' W 003°17'1 0.8
2015-Aug-28 04:33N 58°58' W 003°18'0 0.0
2015-Aug-28 03:33N 58°58' W 003°18'0 0.0
2015-Aug-28 02:33N 58°58' W 003°18'0 0.0
2015-Aug-28 01:27N 58°58' W 003°18'0 0.0
2015-Aug-28 00:33N 58°58' W 003°18'0 0.0
2015-Aug-27 23:21N 58°58' W 003°18'0 0.0
2015-Aug-27 22:33N 58°58' W 003°18'0 0.0
2015-Aug-27 21:33N 58°58' W 003°18'0 0.0
2015-Aug-27 20:33N 58°58' W 003°18'0 0.0
2015-Aug-27 19:33N 58°58' W 003°18'1212.1
2015-Aug-27 18:33N 58°47' W 003°29'1110.7
2015-Aug-27 17:33N 58°37' W 003°32'1111.1
2015-Aug-27 16:33N 58°48' W 003°29'1211.7
2015-Aug-27 15:33N 58°58' W 003°18'0 0.0
2015-Aug-27 14:31N 58°58' W 003°18'0 0.0
2015-Aug-27 13:22N 58°58' W 003°18'0 0.0
2015-Aug-27 12:31N 58°58' W 003°18'0 0.0
2015-Aug-27 11:31N 58°58' W 003°18'0 0.0
2015-Aug-27 10:28N 58°58' W 003°18'0 0.0
2015-Aug-27 09:28N 58°58' W 003°18'8 8.9
2015-Aug-27 08:34N 58°52' W 003°28'1515.2
2015-Aug-27 07:34N 58°37' W 003°32'7 6.6
2015-Aug-27 06:33N 58°43' W 003°30'1615.6
2015-Aug-27 05:33N 58°57' W 003°18'0 0.3
2015-Aug-27 04:18N 58°58' W 003°18'0 0.0
2015-Aug-27 03:30N 58°58' W 003°18'0 0.0
2015-Aug-27 02:30N 58°58' W 003°18'0 0.0
2015-Aug-27 01:30N 58°58' W 003°18'0 0.0
2015-Aug-27 00:30N 58°58' W 003°18'0 0.0
2015-Aug-26 23:30N 58°58' W 003°18'0 0.0
2015-Aug-26 22:30N 58°58' W 003°18'0 0.0
2015-Aug-26 21:18N 58°58' W 003°18'0 0.0
2015-Aug-26 20:30N 58°58' W 003°18'0 0.0
2015-Aug-26 19:31N 58°58' W 003°18'1313.1
2015-Aug-26 18:33N 58°47' W 003°29'1010.2
2015-Aug-26 17:33N 58°37' W 003°32'1111.4
2015-Aug-26 16:33N 58°48' W 003°29'1111.5
2015-Aug-26 15:33N 58°58' W 003°18'0 0.0
2015-Aug-26 14:31N 58°58' W 003°18'0 0.0
2015-Aug-26 13:31N 58°58' W 003°18'0 0.0
2015-Aug-26 12:31N 58°58' W 003°18'0 0.0
2015-Aug-26 11:25N 58°58' W 003°18'0 0.0
2015-Aug-26 10:31N 58°58' W 003°18'0 0.0
2015-Aug-26 09:31N 58°58' W 003°18'7 7.7
2015-Aug-26 08:33N 58°52' W 003°28'1615.8
2015-Aug-26 07:33N 58°37' W 003°32'6 5.8
2015-Aug-26 06:33N 58°42' W 003°30'1616.0
2015-Aug-26 05:33N 58°57' W 003°17'1 0.9
2015-Aug-26 04:30N 58°58' W 003°18'0 0.0
2015-Aug-26 03:30N 58°58' W 003°18'0 0.0
2015-Aug-26 02:30N 58°58' W 003°18'0 0.0
2015-Aug-26 01:33N 58°58' W 003°18'0 0.0
2015-Aug-26 00:30N 58°58' W 003°18'0 0.0
2015-Aug-25 23:33N 58°58' W 003°18'0 0.0
2015-Aug-25 22:33N 58°58' W 003°18'0 0.0
2015-Aug-25 21:30N 58°58' W 003°18'0 0.0
2015-Aug-25 20:30N 58°58' W 003°18'0 0.0
2015-Aug-25 19:33N 58°58' W 003°18'1212.3
2015-Aug-25 18:33N 58°47' W 003°30'1110.6
2015-Aug-25 17:33N 58°37' W 003°32'1111.3
2015-Aug-25 16:34N 58°48' W 003°29'1211.5
2015-Aug-25 15:33N 58°58' W 003°18'0 0.0
2015-Aug-25 14:33N 58°58' W 003°18'0 0.1
2015-Aug-25 13:33N 58°58' W 003°18'1515.2
2015-Aug-25 12:33N 58°44' W 003°30'7 7.3
2015-Aug-25 11:33N 58°37' W 003°32'1616.2
2015-Aug-25 10:33N 58°53' W 003°29'8 7.8
2015-Aug-25 09:33N 58°58' W 003°18'7 7.5
2015-Aug-25 08:34N 58°52' W 003°28'1615.9
2015-Aug-25 07:34N 58°37' W 003°32'5 5.1
2015-Aug-25 06:33N 58°42' W 003°30'1716.5
2015-Aug-25 05:34N 58°57' W 003°18'1 0.9
2015-Aug-25 04:30N 58°58' W 003°18'0 0.0
2015-Aug-25 03:30N 58°58' W 003°18'0 0.0
2015-Aug-25 02:30N 58°58' W 003°18'0 0.0
2015-Aug-25 01:33N 58°58' W 003°18'0 0.0
2015-Aug-25 00:30N 58°58' W 003°18'0 0.0
2015-Aug-24 23:30N 58°58' W 003°18'0 0.0
2015-Aug-24 22:33N 58°58' W 003°18'0 0.0
2015-Aug-24 21:33N 58°58' W 003°18'0 0.0
2015-Aug-24 20:30N 58°58' W 003°18'0 0.0
2015-Aug-24 19:33N 58°58' W 003°18'1111.1
2015-Aug-24 18:33N 58°48' W 003°28'1211.6
2015-Aug-24 17:33N 58°37' W 003°32'1010.5
2015-Aug-24 16:33N 58°47' W 003°29'1212.3
2015-Aug-24 15:33N 58°58' W 003°18'0 0.0
2015-Aug-24 14:33N 58°58' W 003°18'0 0.0
2015-Aug-24 13:33N 58°58' W 003°18'1515.0
2015-Aug-24 12:33N 58°44' W 003°30'8 7.5
2015-Aug-24 11:33N 58°37' W 003°32'1515.1
2015-Aug-24 10:33N 58°51' W 003°28'8 8.3
2015-Aug-24 09:33N 58°58' W 003°18'8 8.2
2015-Aug-24 08:33N 58°52' W 003°29'1515.3
2015-Aug-24 07:33N 58°37' W 003°32'6 5.6
2015-Aug-24 06:33N 58°42' W 003°30'1616.5
2015-Aug-24 05:33N 58°57' W 003°17'1 0.7
2015-Aug-24 04:28N 58°58' W 003°18'0 0.0
2015-Aug-24 03:28N 58°58' W 003°18'0 0.0
2015-Aug-24 02:28N 58°58' W 003°18'0 0.0
2015-Aug-24 01:28N 58°58' W 003°18'0 0.0
2015-Aug-24 00:28N 58°58' W 003°18'0 0.0
2015-Aug-23 23:28N 58°58' W 003°18'0 0.0
2015-Aug-23 22:28N 58°58' W 003°18'0 0.0
2015-Aug-23 21:22N 58°58' W 003°18'0 0.0
2015-Aug-23 20:28N 58°58' W 003°18'0 0.0
2015-Aug-23 19:33N 58°58' W 003°18'1110.7
2015-Aug-23 18:33N 58°49' W 003°28'1212.1
2015-Aug-23 17:33N 58°37' W 003°32'9 8.5
2015-Aug-23 16:33N 58°45' W 003°30'1412.5
2015-Aug-23 15:26N 58°58' W 003°18'0 0.0
2015-Aug-23 14:32N 58°58' W 003°18'0 0.0
2015-Aug-23 13:31N 58°58' W 003°18'0 0.0
2015-Aug-23 12:33N 58°58' W 003°18'1111.2
2015-Aug-23 11:33N 58°48' W 003°29'1211.5
2015-Aug-23 10:32N 58°37' W 003°32'0 0.1
2015-Aug-23 09:27N 58°37' W 003°32'1617.6
2015-Aug-23 08:33N 58°52' W 003°28'8 5.9
2015-Aug-23 07:14N 58°58' W 003°18'0 0.0
2015-Aug-23 06:20N 58°58' W 003°18'0 0.0
2015-Aug-23 05:20N 58°58' W 003°18'0 0.0
2015-Aug-23 04:26N 58°58' W 003°18'0 0.0
2015-Aug-23 03:32N 58°58' W 003°18'0 0.0
2015-Aug-23 02:32N 58°58' W 003°18'0 0.0
2015-Aug-23 01:32N 58°58' W 003°18'0 0.0
2015-Aug-23 00:32N 58°58' W 003°18'0 0.0
2015-Aug-22 23:32N 58°58' W 003°18'0 0.0
2015-Aug-22 22:26N 58°58' W 003°18'0 0.0
2015-Aug-22 21:32N 58°58' W 003°18'0 0.0
2015-Aug-22 20:32N 58°58' W 003°18'0 0.0
2015-Aug-22 19:32N 58°58' W 003°18'1010.7
2015-Aug-22 18:33N 58°49' W 003°28'3 1.4
2015-Aug-22 16:33N 58°46' W 003°29'1313.0
2015-Aug-22 15:33N 58°58' W 003°18'0 0.0
2015-Aug-22 14:33N 58°58' W 003°18'2 1.7
2015-Aug-22 13:33N 58°57' W 003°20'2110.3
2015-Aug-22 11:31N 58°37' W 003°32'1717.8
2015-Aug-22 10:33N 58°53' W 003°29'7 7.2
2015-Aug-22 09:33N 58°58' W 003°18'7 6.9
2015-Aug-22 08:33N 58°53' W 003°27'11 5.6
2015-Aug-22 06:33N 58°42' W 003°31'1616.2
2015-Aug-22 05:33N 58°57' W 003°18'1 1.0
2015-Aug-22 04:33N 58°58' W 003°18'0 0.0
2015-Aug-22 03:33N 58°58' W 003°18'  

Dump ship's entire track history